Time;durP1;ratioP1;P1;durP2;ratioP2;P2;SDS_P1;SDS_P2;PMS_P1;PMS_P2;Temp;Humidity;BMP_temperature;BMP_pressure;BME280_temperature;BME280_humidity;BME280_pressure;Samples;Min_cycle;Max_cycle;Signal;HPM_P1;HPM_P2
2022/05/04 00:00:14;;;;;;;24.15;4.60;;;9.20;94.80;;;;;;5057829;28;20496;-74
2022/05/04 00:02:40;;;;;;;19.52;3.58;;;9.30;94.90;;;;;;5074714;28;20050;-74
2022/05/04 00:05:07;;;;;;;17.95;3.17;;;;;;;;;;5058315;28;20037;-74
2022/05/04 00:07:34;;;;;;;17.85;3.50;;;;;;;;;;5075112;28;20052;-74
2022/05/04 00:10:00;;;;;;;15.82;3.80;;;;;;;;;;5074666;28;20080;-74
2022/05/04 00:12:26;;;;;;;28.85;3.75;;;;;;;;;;5074549;28;20056;-74
2022/05/04 00:14:53;;;;;;;13.82;3.80;;;;;;;;;;5057603;28;20097;-75
2022/05/04 00:17:19;;;;;;;14.45;3.35;;;;;;;;;;5074299;28;20036;-74
2022/05/04 00:19:45;;;;;;;15.43;3.33;;;;;;;;;;5075932;28;20048;-74
2022/05/04 00:22:11;;;;;;;29.95;3.75;;;;;;;;;;5074669;28;20554;-72
2022/05/04 00:24:37;;;;;;;24.00;3.88;;;;;;;;;;5074597;28;20040;-72
2022/05/04 00:27:03;;;;;;;19.23;3.95;;;9.60;99.30;;;;;;5074497;28;20048;-71
2022/05/04 00:29:29;;;;;;;14.02;3.53;;;;;;;;;;5074433;28;20183;-71
2022/05/04 00:31:55;;;;;;;20.25;4.35;;;;;;;;;;5074185;28;20045;-71
2022/05/04 00:34:21;;;;;;;19.52;3.70;;;;;;;;;;5074174;28;20041;-71
2022/05/04 00:36:47;;;;;;;20.73;3.25;;;;;;;;;;5074000;28;20401;-71
2022/05/04 00:39:13;;;;;;;15.45;3.35;;;8.60;98.90;;;;;;5057640;28;20157;-73
2022/05/04 00:41:39;;;;;;;23.27;3.97;;;;;;;;;;5074069;28;20076;-74
2022/05/04 00:44:05;;;;;;;17.30;4.25;;;;;;;;;;5057500;28;20045;-74
2022/05/04 00:46:31;;;;;;;14.60;3.10;;;;;;;;;;5073977;28;20052;-74
2022/05/04 00:48:57;;;;;;;12.82;3.78;;;;;;;;;;5073818;28;20126;-74
2022/05/04 00:51:24;;;;;;;23.40;3.80;;;;;;;;;;5107921;28;20037;-74
2022/05/04 00:53:50;;;;;;;18.70;4.13;;;;;;;;;;5073692;28;20488;-74
2022/05/04 00:56:16;;;;;;;21.00;4.20;;;;;;;;;;5057013;28;20044;-74
2022/05/04 00:58:57;;;;;;;18.08;3.58;;;;;;;;;;5073700;28;20075;-73
2022/05/04 01:01:29;;;;;;;16.88;3.85;;;8.80;94.60;;;;;;5073587;28;20492;-74
2022/05/04 01:03:55;;;;;;;23.00;4.68;;;;;;;;;;5056905;28;20036;-74
2022/05/04 01:06:21;;;;;;;22.85;4.18;;;;;;;;;;5073004;28;20477;-74
2022/05/04 01:08:48;;;;;;;21.63;4.60;;;8.90;95.50;;;;;;5073545;28;20109;-74
2022/05/04 01:11:15;;;;;;;15.45;3.60;;;8.90;95.00;;;;;;5073757;28;20048;-74
2022/05/04 01:13:41;;;;;;;19.83;4.05;;;;;;;;;;5073435;28;20119;-74
2022/05/04 01:16:07;;;;;;;23.98;3.70;;;;;;;;;;5073262;28;20108;-73
2022/05/04 01:18:34;;;;;;;20.20;3.60;;;;;;;;;;5073127;28;20480;-74
2022/05/04 01:21:00;;;;;;;18.20;3.67;;;;;;;;;;5056678;28;20036;-73
2022/05/04 01:23:27;;;;;;;16.10;3.15;;;9.00;94.80;;;;;;5106974;28;20126;-74
2022/05/04 01:25:55;;;;;;;20.00;4.65;;;;;;;;;;5073181;28;20051;-74
2022/05/04 01:28:21;;;;;;;23.58;4.63;;;;;;;;;;5056902;28;20044;-73
2022/05/04 01:30:47;;;;;;;19.58;4.47;;;;;;;;;;5073019;28;20127;-73
2022/05/04 01:33:13;;;;;;;17.17;3.90;;;;;;;;;;5056520;28;20063;-73
2022/05/04 01:35:39;;;;;;;18.70;3.92;;;;;;;;;;5072691;28;20098;-73
2022/05/04 01:38:06;;;;;;;22.30;6.07;;;;;;;;;;5073227;28;20037;-73
2022/05/04 01:40:32;;;;;;;14.07;3.88;;;;;;;;;;5056283;28;20037;-74
2022/05/04 01:42:59;;;;;;;18.92;4.28;;;;;;;;;;5073261;28;20075;-74
2022/05/04 01:45:25;;;;;;;19.95;3.40;;;;;;;;;;5074707;28;20127;-74
2022/05/04 01:47:51;;;;;;;17.77;3.78;;;;;;;;;;5072986;28;20446;-74
2022/05/04 01:50:18;;;;;;;14.00;3.05;;;;;;;;;;5072629;28;20083;-70
2022/05/04 01:52:44;;;;;;;20.05;3.35;;;;;;;;;;5072576;28;20154;-71
2022/05/04 01:55:10;;;;;;;13.50;3.10;;;;;;;;;;5056057;28;20044;-71
2022/05/04 01:57:37;;;;;;;23.25;3.80;;;;;;;;;;5072726;28;20048;-71
2022/05/04 02:00:05;;;;;;;13.25;4.38;;;8.70;99.00;;;;;;5055622;28;20055;-71
2022/05/04 02:02:31;;;;;;;23.02;3.95;;;;;;;;;;5072422;28;20052;-73
2022/05/04 02:04:57;;;;;;;22.70;4.50;;;;;;;;;;5072483;28;20052;-72
2022/05/04 02:07:23;;;;;;;14.93;4.05;;;;;;;;;;5072207;28;20072;-74
2022/05/04 02:09:49;;;;;;;18.63;3.95;;;;;;;;;;5055764;28;20071;-73
2022/05/04 02:12:15;;;;;;;15.52;4.00;;;;;;;;;;5072627;28;20048;-74
2022/05/04 02:14:41;;;;;;;13.57;3.78;;;8.00;98.90;;;;;;5056159;28;20059;-73
2022/05/04 02:17:07;;;;;;;13.55;3.85;;;;;;;;;;5105627;28;20489;-74
2022/05/04 02:19:33;;;;;;;16.08;3.88;;;;;;;;;;5072102;28;20043;-73
2022/05/04 02:21:59;;;;;;;16.98;3.13;;;;;;;;;;5072106;28;20036;-73
2022/05/04 02:24:25;;;;;;;18.60;3.45;;;;;;;;;;5072195;28;20043;-73
2022/05/04 02:26:51;;;;;;;17.90;3.90;;;;;;;;;;5055361;28;20098;-73
2022/05/04 02:29:17;;;;;;;15.27;3.67;;;;;;;;;;5072407;28;20048;-73
2022/05/04 02:31:43;;;;;;;14.85;3.60;;;;;;;;;;5073417;28;20051;-73
2022/05/04 02:34:10;;;;;;;16.45;4.03;;;;;;;;;;5055371;28;20072;-73
2022/05/04 02:39:20;;;;;;;14.75;4.07;;;;;;;;;;5071917;28;20230;-74
2022/05/04 02:41:48;;;;;;;18.58;3.70;;;;;;;;;;5071879;28;20484;-73
2022/05/04 02:44:15;;;;;;;16.55;3.53;;;;;;;;;;5055218;28;20082;-73
2022/05/04 02:46:41;;;;;;;14.57;3.40;;;;;;;;;;5071972;28;20522;-73
2022/05/04 02:49:07;;;;;;;14.50;4.00;;;;;;;;;;5073142;28;20484;-73
2022/05/04 02:51:33;;;;;;;12.98;3.38;;;;;;;;;;5055417;28;20058;-73
2022/05/04 02:53:59;;;;;;;23.33;3.63;;;;;;;;;;5055180;28;20040;-74
2022/05/04 02:56:25;;;;;;;18.40;3.60;;;;;;;;;;5054977;28;20051;-74
2022/05/04 02:58:53;;;;;;;17.00;3.92;;;;;;;;;;5071557;28;20461;-74
2022/05/04 03:04:08;;;;;;;17.50;3.40;;;;;;;;;;5071735;28;20044;-73
2022/05/04 03:06:34;;;;;;;15.27;3.53;;;;;;;;;;5072866;28;20380;-74
2022/05/04 03:09:00;;;;;;;13.52;4.00;;;;;;;;;;5071568;28;20550;-73
2022/05/04 03:14:11;;;;;;;17.98;3.42;;;;;;;;;;5071718;28;20044;-74
2022/05/04 03:16:39;;;;;;;11.50;3.55;;;;;;;;;;5071581;28;20040;-74
2022/05/04 03:19:05;;;;;;;23.30;3.78;;;;;;;;;;5071615;28;20057;-74
2022/05/04 03:21:32;;;;;;;17.50;4.88;;;;;;;;;;5071643;28;20075;-74
2022/05/04 03:23:58;;;;;;;32.20;6.10;;;;;;;;;;5071439;28;20070;-74
2022/05/04 03:26:24;;;;;;;26.20;4.88;;;;;;;;;;5071525;28;20110;-74
2022/05/04 03:28:51;;;;;;;24.77;5.47;;;;;;;;;;5057026;28;20044;-73
2022/05/04 03:31:17;;;;;;;19.60;4.25;;;;;;;;;;5075175;28;20041;-74
2022/05/04 03:33:44;;;;;;;24.10;4.13;;;;;;;;;;5075311;28;20047;-73
2022/05/04 03:36:10;;;;;;;18.10;4.50;;;;;;;;;;5075316;28;20442;-73
2022/05/04 03:38:37;;;;;;;23.95;4.50;;;;;;;;;;5075066;28;20048;-74
2022/05/04 03:41:03;;;;;;;16.33;4.05;;;;;;;;;;5075042;28;20473;-73
2022/05/04 03:43:29;;;;;;;16.73;4.55;;;;;;;;;;5075004;28;20032;-73
2022/05/04 03:45:55;;;;;;;13.82;4.53;;;;;;;;;;5075042;28;20401;-74
2022/05/04 03:48:22;;;;;;;20.35;3.70;;;;;;;;;;5058464;28;20381;-73
2022/05/04 03:50:48;;;;;;;21.42;3.63;;;;;;;;;;5075209;28;20044;-74
2022/05/04 03:53:14;;;;;;;23.42;3.55;;;;;;;;;;5058409;28;20052;-74
2022/05/04 03:55:40;;;;;;;13.45;3.85;;;;;;;;;;5058348;28;20119;-74
2022/05/04 03:58:06;;;;;;;17.13;4.38;;;;;;;;;;5108869;28;20037;-74
2022/05/04 04:00:32;;;;;;;17.25;4.07;;;;;;;;;;5074561;28;20095;-74
2022/05/04 04:02:58;;;;;;;17.92;4.38;;;;;;;;;;5074648;28;20048;-74
2022/05/04 04:05:25;;;;;;;20.50;5.07;;;;;;;;;;5058325;28;20126;-74
2022/05/04 04:07:51;;;;;;;17.48;4.22;;;;;;;;;;5074600;28;20052;-75
2022/05/04 04:10:17;;;;;;;20.30;4.28;;;;;;;;;;5041523;28;20079;-74
2022/05/04 04:12:43;;;;;;;16.38;4.75;;;;;;;;;;5057972;28;20094;-75
2022/05/04 04:15:09;;;;;;;17.33;3.97;;;;;;;;;;5058230;28;20044;-74
2022/05/04 04:17:35;;;;;;;24.38;4.05;;;;;;;;;;5074478;28;20504;-74
2022/05/04 04:22:46;;;;;;;15.55;3.90;;;;;;;;;;5060449;28;20040;-74
2022/05/04 04:25:12;;;;;;;21.05;4.50;;;;;;;;;;5108171;28;20041;-74
2022/05/04 04:27:38;;;;;;;17.38;4.97;;;;;;;;;;5074335;28;20488;-74
2022/05/04 04:30:04;;;;;;;21.00;4.18;;;;;;;;;;5108543;28;20431;-74
2022/05/04 04:32:30;;;;;;;15.48;3.70;;;;;;;;;;5057664;28;20106;-73
2022/05/04 04:34:56;;;;;;;17.45;4.30;;;;;;;;;;5074476;28;20055;-74
2022/05/04 04:37:22;;;;;;;17.08;4.57;;;;;;;;;;5057610;28;20056;-74
2022/05/04 04:39:48;;;;;;;14.38;3.97;;;;;;;;;;5074083;28;20040;-74
2022/05/04 04:42:14;;;;;;;15.15;4.45;;;;;;;;;;5074464;28;20032;-73
2022/05/04 04:44:40;;;;;;;11.88;3.60;;;;;;;;;;5074062;28;20040;-74
2022/05/04 04:47:06;;;;;;;17.48;3.80;;;;;;;;;;5073891;28;20041;-73
2022/05/04 04:49:32;;;;;;;13.98;4.38;;;;;;;;;;5073873;28;20053;-74
2022/05/04 04:51:58;;;;;;;15.60;3.72;;;;;;;;;;5073784;28;20036;-74
2022/05/04 04:54:24;;;;;;;18.20;4.95;;;;;;;;;;5073828;28;20079;-74
2022/05/04 04:56:50;;;;;;;15.25;4.18;;;;;;;;;;5073580;28;20048;-74
2022/05/04 04:59:17;;;;;;;21.23;4.28;;;;;;;;;;5073541;28;20056;-75
2022/05/04 05:01:43;;;;;;;27.90;5.57;;;;;;;;;;5073608;28;20040;-74
2022/05/04 05:04:09;;;;;;;23.23;4.43;;;;;;;;;;5107534;28;20044;-74
2022/05/04 05:06:35;;;;;;;14.23;4.68;;;;;;;;;;5056895;28;20041;-74
2022/05/04 05:09:01;;;;;;;16.35;4.03;;;;;;;;;;5073910;28;20380;-75
2022/05/04 05:11:27;;;;;;;17.98;4.53;;;;;;;;;;5073625;28;20080;-74
2022/05/04 05:16:37;;;;;;;10.48;3.30;;;;;;;;;;5073081;28;20054;-74
2022/05/04 05:19:04;;;;;;;12.68;4.22;;;;;;;;;;5056898;28;20041;-74
2022/05/04 05:21:30;;;;;;;16.10;5.35;;;;;;;;;;5073309;28;20457;-74
2022/05/04 05:23:56;;;;;;;20.70;4.70;;;;;;;;;;5073394;28;20044;-74
2022/05/04 05:26:22;;;;;;;14.80;4.85;;;;;;;;;;5073241;28;20048;-73
2022/05/04 05:28:48;;;;;;;17.35;4.28;;;;;;;;;;5056978;28;20128;-74
2022/05/04 05:31:14;;;;;;;12.43;3.47;;;;;;;;;;5073283;28;20040;-74
2022/05/04 05:33:40;;;;;;;19.33;4.13;;;;;;;;;;5073056;28;20131;-74
2022/05/04 05:36:07;;;;;;;21.35;4.00;;;;;;;;;;5073010;28;20040;-74
2022/05/04 05:38:33;;;;;;;20.73;3.42;;;;;;;;;;5073193;28;20084;-74
2022/05/04 05:41:01;;;;;;;18.13;4.07;;;;;;;;;;5039762;28;20041;-74
2022/05/04 05:43:28;;;;;;;21.27;4.10;;;;;;;;;;5074148;28;20431;-74
2022/05/04 05:45:54;;;;;;;21.05;4.32;;;;;;;;;;5072974;28;20102;-73
2022/05/04 05:48:20;;;;;;;20.63;4.82;;;;;;;;;;5072705;28;20123;-74
2022/05/04 05:50:47;;;;;;;19.33;4.18;;;;;;;;;;5055432;28;20131;-71
2022/05/04 05:53:14;;;;;;;17.52;5.00;;;;;;;;;;5056136;28;20146;-72
2022/05/04 05:55:40;;;;;;;19.95;4.18;;;;;;;;;;5056047;28;20124;-71
2022/05/04 05:58:07;;;;;;;20.65;3.72;;;;;;;;;;5072466;28;20076;-71
2022/05/04 06:00:33;;;;;;;13.95;4.40;;;;;;;;;;5072189;28;20110;-71
2022/05/04 06:03:00;;;;;;;12.23;3.60;;;;;;;;;;5072582;28;20040;-72
2022/05/04 06:05:26;;;;;;;14.63;4.13;;;;;;;;;;5072388;28;20043;-73
2022/05/04 06:07:52;;;;;;;11.63;3.40;;;;;;;;;;5055697;28;20044;-72
2022/05/04 06:10:18;;;;;;;17.50;4.22;;;;;;;;;;5072242;28;20040;-72
2022/05/04 06:12:44;;;;;;;22.77;3.95;;;;;;;;;;5055576;28;20132;-71
2022/05/04 06:15:11;;;;;;;20.88;3.92;;;;;;;;;;5072380;28;20151;-71
2022/05/04 06:17:37;;;;;;;21.48;5.10;;;9.20;95.00;;;;;;5072093;28;20388;-71
2022/05/04 06:20:04;;;;;;;19.00;4.63;;;9.80;99.00;;;;;;5072228;28;20048;-72
2022/05/04 06:22:31;;;;;;;12.82;4.22;;;;;;;;;;5055590;28;20044;-72
2022/05/04 06:24:57;;;;;;;24.98;4.55;;;;;;;;;;5072155;28;20480;-71
2022/05/04 06:27:23;;;;;;;16.30;4.50;;;;;;;;;;5072081;28;20048;-71
2022/05/04 06:35:18;;;;;;;18.65;4.13;;;;;;;;;;5071896;28;20048;-72
2022/05/04 06:37:44;;;;;;;14.10;3.58;;;;;;;;;;5071781;28;20042;-72
2022/05/04 06:40:10;;;;;;;21.65;4.72;;;;;;;;;;5072121;28;20040;-72
2022/05/04 06:42:37;;;;;;;12.25;4.10;;;;;;;;;;5072101;28;20037;-72
2022/05/04 06:45:04;;;;;;;20.23;3.75;;;;;;;;;;5071871;28;20102;-72
2022/05/04 06:47:30;;;;;;;20.20;5.03;;;;;;;;;;5071873;28;20036;-72
2022/05/04 06:49:56;;;;;;;20.17;4.63;;;;;;;;;;5055502;28;20037;-72
2022/05/04 06:52:25;;;;;;;16.52;3.95;;;;;;;;;;5055141;28;20072;-72
2022/05/04 06:54:52;;;;;;;14.13;4.38;;;;;;;;;;5071888;28;20045;-72
2022/05/04 06:57:18;;;;;;;14.40;4.07;;;;;;;;;;5071753;28;20053;-72
2022/05/04 06:59:44;;;;;;;15.50;4.85;;;;;;;;;;5055014;28;20059;-72
2022/05/04 07:02:10;;;;;;;18.58;5.55;;;;;;;;;;5072018;28;20542;-72
2022/05/04 07:04:36;;;;;;;13.32;4.22;;;;;;;;;;5058981;28;20063;-72
2022/05/04 07:07:02;;;;;;;24.15;5.20;;;;;;;;;;5076984;28;20055;-72
2022/05/04 07:09:28;;;;;;;20.27;4.30;;;;;;;;;;5075771;28;20128;-72
2022/05/04 07:11:54;;;;;;;18.90;3.90;;;;;;;;;;5058949;28;20041;-72
2022/05/04 07:14:20;;;;;;;20.38;4.28;;;;;;;;;;5075868;28;20075;-72
2022/05/04 07:16:47;;;;;;;14.45;3.70;;;;;;;;;;5058838;28;20560;-72
2022/05/04 07:19:13;;;;;;;10.27;4.00;;;;;;;;;;5075754;28;20049;-71
2022/05/04 07:21:40;;;;;;;19.52;4.35;;;;;;;;;;5075915;28;20055;-71
2022/05/04 07:24:06;;;;;;;22.05;4.50;;;;;;;;;;5042304;28;20040;-71
2022/05/04 07:26:33;;;;;;;17.67;4.47;;;;;;;;;;5076711;28;20040;-71
2022/05/04 07:28:59;;;;;;;19.05;4.20;;;;;;;;;;5075391;28;20044;-71
2022/05/04 07:31:25;;;;;;;12.88;3.65;;;;;;;;;;5109474;28;20041;-71
2022/05/04 07:33:51;;;;;;;16.45;3.90;;;;;;;;;;5075525;28;20059;-71
2022/05/04 07:36:17;;;;;;;11.82;4.22;;;;;;;;;;5075318;28;20056;-75
2022/05/04 07:38:44;;;;;;;18.30;4.78;;;;;;;;;;5042505;28;20033;-74
2022/05/04 07:43:54;;;;;;;17.08;4.10;;;;;;;;;;5075790;28;20484;-74
2022/05/04 07:46:20;;;;;;;18.33;3.85;;;;;;;;;;5075525;28;20052;-75
2022/05/04 07:48:46;;;;;;;24.05;4.82;;;;;;;;;;5075825;28;20114;-75
2022/05/04 07:51:12;;;;;;;13.55;4.38;;;;;;;;;;5074967;28;20037;-75
2022/05/04 07:53:38;;;;;;;24.42;3.95;;;;;;;;;;5075266;28;20045;-74
2022/05/04 07:56:05;;;;;;;18.15;3.83;;;;;;;;;;5074846;28;20040;-74
2022/05/04 07:58:31;;;;;;;13.38;4.15;;;;;;;;;;5075654;28;22064;-74
2022/05/04 08:06:27;;;;;;;14.40;4.57;;;;;;;;;;5075094;28;20044;-74
2022/05/04 08:08:53;;;;;;;15.95;3.80;;;;;;;;;;5074655;28;20044;-75
2022/05/04 08:11:19;;;;;;;16.65;4.85;;;;;;;;;;5075911;28;20115;-74
2022/05/04 08:13:45;;;;;;;20.77;4.18;;;;;;;;;;5074142;28;20119;-74
2022/05/04 08:16:13;;;;;;;16.00;4.57;;;;;;;;;;5074531;28;20041;-74
2022/05/04 08:18:40;;;;;;;16.25;4.05;;;;;;;;;;5074414;28;20044;-75
2022/05/04 08:21:09;;;;;;;20.02;4.25;;;;;;;;;;5074661;28;20173;-74
2022/05/04 08:23:35;;;;;;;17.35;4.53;;;;;;;;;;5074768;28;20051;-75
2022/05/04 08:26:02;;;;;;;18.58;4.63;;;;;;;;;;5074699;28;20458;-74
2022/05/04 08:28:29;;;;;;;16.85;4.60;;;;;;;;;;5074651;28;20044;-74
2022/05/04 08:30:55;;;;;;;11.85;4.32;;;;;;;;;;5074760;28;20045;-74
2022/05/04 08:33:21;;;;;;;18.20;4.20;;;;;;;;;;5074579;28;20052;-74
2022/05/04 08:35:47;;;;;;;21.23;4.80;;;;;;;;;;5074455;28;20044;-74
2022/05/04 08:38:13;;;;;;;11.70;3.80;;;;;;;;;;5074864;28;20045;-74
2022/05/04 08:40:39;;;;;;;17.17;4.00;;;;;;;;;;5074112;28;20037;-74
2022/05/04 08:43:07;;;;;;;15.23;4.55;;;;;;;;;;5074377;28;20056;-75
2022/05/04 08:45:39;;;;;;;15.93;4.10;;;10.50;93.10;;;;;;5074366;28;20459;-74
2022/05/04 08:48:05;;;;;;;20.38;4.32;;;;;;;;;;5074287;28;20045;-74
2022/05/04 08:50:33;;;;;;;23.60;4.45;;;10.60;92.90;;;;;;5074417;28;20044;-74
2022/05/04 08:53:00;;;;;;;22.83;4.88;;;;;;;;;;5075494;28;20037;-74
2022/05/04 08:55:26;;;;;;;17.58;4.43;;;;;;;;;;5057972;28;20040;-74
2022/05/04 08:57:54;;;;;;;17.38;4.13;;;;;;;;;;5057377;28;20123;-74
2022/05/04 09:00:20;;;;;;;17.20;5.47;;;;;;;;;;5073638;28;20098;-74
2022/05/04 09:02:47;;;;;;;21.55;5.18;;;;;;;;;;5073713;28;20044;-74
2022/05/04 09:05:14;;;;;;;19.50;5.20;;;11.10;92.60;;;;;;5057493;28;20123;-74
2022/05/04 09:07:40;;;;;;;20.02;5.90;;;;;;;;;;5073759;28;20119;-74
2022/05/04 09:10:06;;;;;;;15.55;4.10;;;;;;;;;;5074013;28;20110;-74
2022/05/04 09:12:33;;;;;;;14.25;5.00;;;;;;;;;;5073698;28;20547;-74
2022/05/04 09:14:59;;;;;;;17.58;4.50;;;;;;;;;;5073929;28;20041;-74
2022/05/04 09:17:25;;;;;;;20.25;4.78;;;;;;;;;;5073390;28;20125;-74
2022/05/04 09:20:45;;;;;;;21.05;4.90;;;11.20;92.30;;;;;;5057162;28;20041;-74
2022/05/04 09:22:41;;;;;;;16.42;4.40;;;;;;;;;;5073496;28;20127;-75
2022/05/04 09:25:16;;;;;;;14.48;4.63;;;10.90;92.40;;;;;;5055945;28;20441;-74
2022/05/04 09:27:42;;;;;;;17.85;4.47;;;;;;;;;;5073110;28;20123;-74
2022/05/04 09:30:08;;;;;;;20.65;5.13;;;11.30;94.20;;;;;;5073646;28;20114;-73
2022/05/04 09:32:39;;;;;;;23.50;4.70;;;10.70;96.20;;;;;;5074490;28;20074;-74
2022/05/04 09:35:10;;;;;;;23.25;4.75;;;;;;;;;;5056555;28;20120;-74
2022/05/04 09:45:55;;;;;;;16.80;4.65;;;;;;;;;;5073531;28;20051;-74
2022/05/04 09:48:32;;;;;;;17.80;4.85;;;12.10;91.70;;;;;;5073828;28;20145;-74
2022/05/04 09:51:06;;;;;;;14.25;4.82;;;12.40;91.50;;;;;;5073285;28;20101;-74
2022/05/04 09:53:32;;;;;;;19.10;5.07;;;;;;;;;;5056063;28;20055;-74
2022/05/04 09:55:59;;;;;;;20.55;5.10;;;;;;;;;;5072836;28;20127;-74
2022/05/04 09:58:29;;;;;;;12.52;5.07;;;12.50;90.70;;;;;;5072654;28;20311;-74
2022/05/04 10:00:55;;;;;;;20.23;5.05;;;;;;;;;;5056244;28;20044;-74
2022/05/04 10:03:22;;;;;;;16.55;4.38;;;;;;;;;;5072829;28;20047;-74
2022/05/04 10:05:49;;;;;;;23.00;5.10;;;;;;;;;;5072619;28;20044;-74
2022/05/04 10:08:15;;;;;;;20.17;5.15;;;;;;;;;;5056427;28;20036;-73
2022/05/04 10:10:41;;;;;;;18.70;6.10;;;;;;;;;;5055970;28;20045;-74
2022/05/04 10:13:10;;;;;;;18.98;4.72;;;12.20;90.00;;;;;;5056336;28;20071;-74
2022/05/04 10:15:37;;;;;;;17.58;5.22;;;;;;;;;;5072544;28;20045;-74
2022/05/04 10:18:12;;;;;;;17.15;5.07;;;11.70;91.40;;;;;;5072606;28;20127;-74
2022/05/04 10:20:44;;;;;;;20.85;4.60;;;;;;;;;;5072911;28;20044;-74
2022/05/04 10:23:17;;;;;;;31.13;6.83;;;11.90;91.40;;;;;;5072693;28;20044;-73
2022/05/04 10:25:43;;;;;;;15.80;5.28;;;;;;;;;;5072239;28;20040;-74
2022/05/04 10:28:11;;;;;;;17.52;5.30;;;;;;;;;;5072137;28;20150;-74
2022/05/04 10:30:59;;;;;;;20.73;5.38;;;12.50;91.40;;;;;;5072015;28;20047;-73
2022/05/04 10:33:31;;;;;;;19.67;5.40;;;12.70;91.00;;;;;;5072642;28;20040;-74
2022/05/04 10:35:57;;;;;;;20.63;4.88;;;;;;;;;;5056089;28;20048;-73
2022/05/04 10:38:26;;;;;;;20.75;5.22;;;;;;;;;;5075845;28;20495;-72
2022/05/04 10:40:53;;;;;;;15.60;5.35;;;;;;;;;;5062863;28;20041;-74
2022/05/04 10:43:34;;;;;;;22.35;5.95;;;13.50;89.60;;;;;;5072693;28;20055;-74
2022/05/04 10:46:16;;;;;;;15.40;4.97;;;13.70;87.90;;;;;;5072080;28;20045;-74
2022/05/04 10:48:51;;;;;;;25.37;5.80;;;13.70;89.50;;;;;;5072407;28;20396;-75
2022/05/04 10:51:19;;;;;;;21.02;5.18;;;;;;;;;;5072264;28;20118;-74
2022/05/04 10:53:47;;;;;;;19.88;5.15;;;;;;;;;;5071834;28;20040;-74
2022/05/04 10:56:15;;;;;;;23.02;5.35;;;;;;;;;;5071920;28;20044;-74
2022/05/04 10:58:44;;;;;;;21.98;5.55;;;;;;;;;;5071749;28;20052;-73
2022/05/04 11:01:30;;;;;;;16.48;5.25;;;13.00;88.00;;;;;;5072070;28;20151;-74
2022/05/04 11:04:15;;;;;;;21.83;5.28;;;;;;;;;;5072161;28;20048;-74
2022/05/04 11:06:56;;;;;;;23.83;6.15;;;12.60;90.40;;;;;;5071689;28;20040;-74
2022/05/04 11:09:29;;;;;;;15.93;5.70;;;;;;;;;;5071933;28;20169;-74
2022/05/04 11:11:57;;;;;;;15.18;5.32;;;12.70;90.40;;;;;;5071888;28;20040;-75
2022/05/04 11:14:23;;;;;;;19.35;5.55;;;12.80;90.30;;;;;;5072316;28;20071;-74
2022/05/04 11:16:51;;;;;;;20.80;6.10;;;;;;;;;;5073118;28;20110;-75
2022/05/04 11:19:17;;;;;;;23.45;6.18;;;;;;;;;;5071962;28;20040;-75
2022/05/04 11:21:43;;;;;;;18.80;5.70;;;;;;;;;;5055587;28;20041;-75
2022/05/04 11:24:11;;;;;;;17.27;5.60;;;13.40;89.30;;;;;;5071780;28;20048;-75
2022/05/04 11:26:49;;;;;;;16.85;5.30;;;13.50;89.20;;;;;;5071861;28;20048;-75
2022/05/04 11:29:17;;;;;;;24.95;5.97;;;13.70;89.30;;;;;;5071773;28;20048;-73
2022/05/04 11:31:48;;;;;;;24.42;6.50;;;;;;;;;;5072329;28;20433;-75
2022/05/04 11:34:15;;;;;;;22.08;6.07;;;14.10;88.10;;;;;;5072187;28;20511;-75
2022/05/04 11:36:44;;;;;;;17.13;5.78;;;;;;;;;;5071728;28;20040;-75
2022/05/04 11:39:13;;;;;;;25.00;6.68;;;14.10;87.40;;;;;;5071977;28;20048;-75
2022/05/04 11:41:39;;;;;;;21.27;6.40;;;;;;;;;;5054854;28;20036;-74
2022/05/04 11:44:06;;;;;;;21.08;6.72;;;;;;;;;;5055217;28;20067;-75
2022/05/04 11:46:32;;;;;;;16.52;6.85;;;;;;;;;;5055336;28;20389;-75
2022/05/04 11:48:58;;;;;;;18.25;6.13;;;;;;;;;;5072657;28;20048;-75
2022/05/04 11:51:24;;;;;;;17.70;7.13;;;;;;;;;;5076473;28;20051;-74
2022/05/04 11:53:50;;;;;;;13.77;5.85;;;;;;;;;;5076978;28;20127;-74
2022/05/04 11:56:16;;;;;;;25.50;6.90;;;;;;;;;;5075330;28;20527;-75
2022/05/04 11:58:42;;;;;;;20.10;6.32;;;;;;;;;;5075683;28;20119;-72
2022/05/04 12:01:09;;;;;;;19.05;6.05;;;;;;;;;;5074860;28;20045;-72
2022/05/04 12:03:37;;;;;;;19.52;6.78;;;;;;;;;;5058381;28;20508;-72
2022/05/04 12:06:09;;;;;;;21.05;6.57;;;14.30;87.40;;;;;;5058001;28;20464;-71
2022/05/04 12:08:35;;;;;;;27.67;7.47;;;;;;;;;;5058104;28;20456;-71
2022/05/04 12:11:01;;;;;;;20.33;7.20;;;;;;;;;;5057963;28;20055;-71
2022/05/04 12:13:28;;;;;;;24.92;6.50;;;;;;;;;;5058351;28;20048;-72
2022/05/04 12:15:55;;;;;;;25.05;7.15;;;14.80;85.20;;;;;;5074625;28;20044;-71
2022/05/04 12:18:27;;;;;;;20.90;6.00;;;14.90;85.30;;;;;;5074670;28;20037;-70
2022/05/04 12:20:53;;;;;;;26.73;6.68;;;;;;;;;;5108346;28;20068;-70
2022/05/04 12:23:19;;;;;;;17.27;6.35;;;;;;;;;;5057909;28;20374;-71
2022/05/04 12:25:45;;;;;;;18.02;6.40;;;;;;;;;;5074292;28;20040;-71
2022/05/04 12:28:11;;;;;;;17.20;6.95;;;;;;;;;;5074503;28;20381;-71
2022/05/04 12:33:34;;;;;;;15.57;6.57;;;15.20;84.60;;;;;;5074176;28;20534;-70
2022/05/04 12:36:08;;;;;;;16.88;6.63;;;15.20;84.80;;;;;;5073958;28;20048;-70
2022/05/04 12:38:39;;;;;;;20.88;6.13;;;14.80;82.80;;;;;;5074214;28;20052;-70
2022/05/04 12:41:07;;;;;;;17.67;6.88;;;14.90;84.80;;;;;;5075585;28;20126;-70
2022/05/04 12:43:34;;;;;;;26.45;6.25;;;15.00;91.40;;;;;;5057615;28;20036;-71
2022/05/04 12:46:01;;;;;;;18.88;7.18;;;15.00;83.90;;;;;;5074023;28;20610;-70
2022/05/04 12:48:28;;;;;;;21.50;6.53;;;;;;;;;;5075181;28;20063;-71
2022/05/04 12:50:55;;;;;;;22.15;6.85;;;15.20;82.80;;;;;;5057163;28;20040;-70
2022/05/04 12:53:23;;;;;;;15.65;6.68;;;;;;;;;;5073867;28;20374;-71
2022/05/04 12:58:34;;;;;;;16.40;6.60;;;;;;;;;;5073900;28;20510;-71
2022/05/04 13:01:00;;;;;;;26.70;7.63;;;;;;;;;;5073636;28;20041;-71
2022/05/04 13:03:26;;;;;;;21.60;7.93;;;;;;;;;;5072466;28;20130;-72
2022/05/04 13:05:52;;;;;;;18.60;7.03;;;;;;;;;;5071817;28;20139;-72
2022/05/04 13:08:18;;;;;;;30.13;7.97;;;;;;;;;;5073273;28;20426;-71
2022/05/04 13:10:47;;;;;;;19.77;7.22;;;;;;;;;;5073319;28;20032;-72
2022/05/04 13:13:13;;;;;;;17.65;7.15;;;;;;;;;;5071996;28;20428;-72
2022/05/04 13:15:40;;;;;;;32.00;7.13;;;;;;;;;;5056063;28;20076;-72
2022/05/04 13:18:08;;;;;;;23.00;7.93;;;;;;;;;;5073280;28;20086;-71
2022/05/04 13:20:34;;;;;;;22.10;7.28;;;;;;;;;;5073304;28;20072;-72
2022/05/04 13:23:00;;;;;;;17.92;7.10;;;;;;;;;;5073264;28;20464;-71
2022/05/04 13:25:26;;;;;;;25.38;8.40;;;;;;;;;;5073617;28;20037;-71
2022/05/04 13:27:53;;;;;;;23.80;7.00;;;15.20;90.70;;;;;;5056550;28;20147;-71
2022/05/04 13:30:19;;;;;;;23.92;7.43;;;;;;;;;;5056499;28;20040;-71
2022/05/04 13:32:45;;;;;;;24.20;7.65;;;;;;;;;;5073342;28;20040;-72
2022/05/04 13:35:11;;;;;;;23.35;7.97;;;;;;;;;;5073328;28;20036;-72
2022/05/04 13:37:37;;;;;;;27.67;7.82;;;;;;;;;;5072805;28;20174;-72
2022/05/04 13:40:03;;;;;;;23.70;8.38;;;16.20;90.80;;;;;;5073067;28;20545;-72
2022/05/04 13:42:29;;;;;;;28.00;8.43;;;16.20;90.50;;;;;;5072991;28;20423;-72
2022/05/04 13:44:55;;;;;;;25.67;9.25;;;16.80;90.70;;;;;;5056441;28;20038;-72
2022/05/04 13:47:21;;;;;;;26.48;7.63;;;;;;;;;;5073144;28;20053;-72
2022/05/04 13:49:47;;;;;;;24.35;7.68;;;;;;;;;;5072770;28;20385;-72
2022/05/04 13:54:58;;;;;;;25.08;7.10;;;;;;;;;;5072986;28;20453;-72
2022/05/04 13:57:25;;;;;;;20.50;6.95;;;;;;;;;;5106483;28;20047;-72
2022/05/04 13:59:51;;;;;;;22.40;7.60;;;;;;;;;;5055838;28;20408;-72
2022/05/04 14:02:18;;;;;;;22.55;7.47;;;;;;;;;;5072593;28;20044;-72
2022/05/04 14:04:44;;;;;;;20.52;7.50;;;;;;;;;;5055907;28;20048;-72
2022/05/04 14:07:10;;;;;;;23.88;7.57;;;14.90;90.40;;;;;;5055801;28;20046;-72
2022/05/04 14:09:36;;;;;;;24.98;8.18;;;15.90;86.10;;;;;;5072580;28;20036;-72
2022/05/04 14:12:02;;;;;;;19.90;7.65;;;15.70;82.30;;;;;;5072004;28;20558;-72
2022/05/04 14:17:13;;;;;;;24.90;8.45;;;;;;;;;;5072245;28;20048;-72
2022/05/04 14:19:39;;;;;;;28.77;7.70;;;;;;;;;;5072415;28;20132;-72
2022/05/04 14:22:05;;;;;;;26.58;7.97;;;;;;;;;;5039208;28;20041;-72
2022/05/04 14:24:32;;;;;;;26.27;8.88;;;;;;;;;;5106147;28;20041;-72
2022/05/04 14:26:58;;;;;;;23.33;7.47;;;;;;;;;;5073366;28;20500;-70
2022/05/04 14:29:24;;;;;;;27.30;8.20;;;;;;;;;;5072401;28;20101;-70
2022/05/04 14:31:50;;;;;;;23.50;7.90;;;;;;;;;;5072410;28;20043;-71
2022/05/04 14:34:16;;;;;;;22.02;7.97;;;15.70;81.40;;;;;;5055621;28;20033;-71
2022/05/04 14:36:42;;;;;;;29.75;8.88;;;14.70;90.20;;;;;;5071851;28;20044;-71
2022/05/04 14:39:08;;;;;;;20.65;7.50;;;16.70;90.70;;;;;;5055611;28;20040;-71
2022/05/04 14:41:34;;;;;;;25.05;8.50;;;16.00;89.00;;;;;;5072282;28;20500;-71
2022/05/04 14:44:00;;;;;;;20.60;7.55;;;15.10;82.30;;;;;;5071886;28;20044;-71
2022/05/04 14:46:26;;;;;;;27.10;8.55;;;;;;;;;;5055149;28;20056;-71
2022/05/04 14:48:53;;;;;;;26.13;7.50;;;16.10;87.80;;;;;;5071881;28;20476;-72
2022/05/04 14:51:19;;;;;;;22.45;7.70;;;16.30;90.90;;;;;;5055383;28;20044;-71